createdAt,value
2017-02-28T00:00:56.376Z,0
2017-02-28T00:02:06.683Z,0
2017-02-28T00:03:15.768Z,0
2017-02-28T00:04:25.656Z,0
2017-02-28T00:05:36.185Z,0
2017-02-28T00:06:46.547Z,0
2017-02-28T00:07:56.872Z,0
2017-02-28T00:09:06.841Z,0
2017-02-28T00:10:17.147Z,0
2017-02-28T00:11:27.295Z,0
2017-02-28T00:12:37.205Z,0
2017-02-28T00:13:47.587Z,0
2017-02-28T00:14:57.911Z,0
2017-02-28T00:16:07.765Z,0
2017-02-28T00:17:17.943Z,0
2017-02-28T00:18:28.280Z,0
2017-02-28T00:19:38.139Z,0
2017-02-28T00:20:48.528Z,0
2017-02-28T00:21:58.504Z,0
2017-02-28T00:23:09.083Z,0
2017-02-28T00:24:18.580Z,0
2017-02-28T00:25:28.987Z,0
2017-02-28T00:26:39.269Z,0
2017-02-28T00:27:49.167Z,0
2017-02-28T00:28:59.332Z,0
2017-02-28T00:30:09.291Z,0
2017-02-28T00:31:19.672Z,0
2017-02-28T00:32:29.528Z,0
2017-02-28T00:33:39.962Z,0
2017-02-28T00:34:50.533Z,0
2017-02-28T00:36:00.441Z,0
2017-02-28T00:37:10.728Z,0
2017-02-28T00:38:20.660Z,0
2017-02-28T00:39:30.992Z,0
2017-02-28T00:40:41.144Z,0
2017-02-28T00:41:50.657Z,0
2017-02-28T00:43:00.941Z,0
2017-02-28T00:44:11.226Z,0
2017-02-28T00:45:21.514Z,0
2017-02-28T00:46:31.248Z,0
2017-02-28T00:47:41.531Z,0
2017-02-28T00:48:51.814Z,0
2017-02-28T00:50:02.164Z,0
2017-02-28T00:51:12.087Z,0
2017-02-28T00:52:22.713Z,0
2017-02-28T00:53:33.006Z,0
2017-02-28T00:54:43.294Z,0
2017-02-28T00:55:53.193Z,0
2017-02-28T00:57:03.095Z,0
2017-02-28T00:58:13.663Z,0
2017-02-28T00:59:23.564Z,0
2017-02-28T01:00:33.919Z,0
2017-02-28T01:01:43.915Z,0
2017-02-28T01:02:53.993Z,0
2017-02-28T01:04:04.104Z,0
2017-02-28T01:05:14.402Z,0
2017-02-28T01:06:24.754Z,0
2017-02-28T01:07:35.012Z,0
2017-02-28T01:08:44.916Z,0
2017-02-28T01:09:55.138Z,0
2017-02-28T01:11:05.071Z,0
2017-02-28T01:12:14.576Z,0
2017-02-28T01:13:24.959Z,0
2017-02-28T01:14:35.257Z,0
2017-02-28T01:15:45.455Z,0
2017-02-28T01:16:55.474Z,0
2017-02-28T01:18:05.754Z,0
2017-02-28T01:19:15.615Z,0
2017-02-28T01:20:25.877Z,0
2017-02-28T01:21:36.445Z,0
2017-02-28T01:22:46.758Z,0
2017-02-28T01:23:57.064Z,0
2017-02-28T01:25:07.327Z,0
2017-02-28T01:26:17.769Z,0
2017-02-28T01:27:28.344Z,0
2017-02-28T01:28:38.553Z,0
2017-02-28T01:29:48.841Z,0
2017-02-28T01:30:59.123Z,0
2017-02-28T01:32:09.056Z,0
2017-02-28T01:33:19.641Z,0
2017-02-28T01:34:29.905Z,0
2017-02-28T01:35:40.236Z,0
2017-02-28T01:36:50.493Z,0
2017-02-28T01:38:00.886Z,0
2017-02-28T01:39:11.047Z,0
2017-02-28T01:40:20.939Z,0
2017-02-28T01:41:31.241Z,0
2017-02-28T01:42:41.181Z,0
2017-02-28T01:43:51.533Z,0
2017-02-28T01:45:02.149Z,0
2017-02-28T01:46:12.030Z,0
2017-02-28T01:47:22.347Z,0
2017-02-28T01:48:32.691Z,0
2017-02-28T01:49:43.036Z,0
2017-02-28T01:50:53.615Z,0
2017-02-28T01:52:03.893Z,0
2017-02-28T01:53:13.755Z,0
2017-02-28T01:54:23.647Z,0
2017-02-28T01:55:33.538Z,0
2017-02-28T01:56:43.656Z,0
2017-02-28T01:57:53.986Z,0
2017-02-28T01:59:03.455Z,0
2017-02-28T02:00:13.356Z,0
2017-02-28T02:01:23.386Z,0
2017-02-28T02:02:33.911Z,0
2017-02-28T02:03:43.831Z,0
2017-02-28T02:04:54.183Z,0
2017-02-28T02:06:04.606Z,0
2017-02-28T02:07:14.924Z,0
2017-02-28T02:08:25.528Z,0
2017-02-28T02:09:35.013Z,0
2017-02-28T02:10:45.336Z,0
2017-02-28T02:11:55.224Z,0
2017-02-28T02:13:05.489Z,0
2017-02-28T02:14:16.008Z,0
2017-02-28T02:15:26.311Z,0
2017-02-28T02:16:36.198Z,0
2017-02-28T02:17:46.476Z,0
2017-02-28T02:18:56.768Z,0
2017-02-28T02:20:06.980Z,0
2017-02-28T02:21:17.281Z,0
2017-02-28T02:22:26.783Z,0
2017-02-28T02:23:35.857Z,0
2017-02-28T02:24:45.736Z,0
2017-02-28T02:25:56.301Z,0
2017-02-28T02:27:06.629Z,0
2017-02-28T02:28:16.885Z,0
2017-02-28T02:29:26.788Z,0
2017-02-28T02:30:36.703Z,0
2017-02-28T02:31:46.987Z,0
2017-02-28T02:32:57.254Z,0
2017-02-28T02:34:07.543Z,0
2017-02-28T02:35:17.823Z,0
2017-02-28T02:36:27.796Z,0
2017-02-28T02:37:37.947Z,0
2017-02-28T02:38:48.292Z,0
2017-02-28T02:39:58.593Z,0
2017-02-28T02:41:08.525Z,0
2017-02-28T02:42:18.948Z,0
2017-02-28T02:43:29.489Z,0
2017-02-28T02:44:39.502Z,0
2017-02-28T02:45:49.787Z,0
2017-02-28T02:47:00.068Z,0
2017-02-28T02:48:10.382Z,0
2017-02-28T02:49:21.225Z,0
2017-02-28T02:50:31.508Z,0
2017-02-28T02:51:41.401Z,0
2017-02-28T02:52:51.690Z,0
2017-02-28T02:54:01.726Z,0
2017-02-28T02:55:12.313Z,0
2017-02-28T02:56:22.625Z,0
2017-02-28T02:57:32.894Z,0
2017-02-28T02:58:43.190Z,0
2017-02-28T02:59:53.054Z,0
2017-02-28T03:01:03.258Z,0
2017-02-28T03:02:13.130Z,0
2017-02-28T03:03:22.754Z,0
2017-02-28T03:04:32.700Z,0
2017-02-28T03:05:43.097Z,0
2017-02-28T03:06:53.227Z,0
2017-02-28T03:08:03.492Z,0
2017-02-28T03:09:13.380Z,0
2017-02-28T03:10:23.670Z,0
2017-02-28T03:11:33.555Z,0
2017-02-28T03:12:44.078Z,0
2017-02-28T03:13:53.540Z,0
2017-02-28T03:15:03.459Z,0
2017-02-28T03:16:13.481Z,0
2017-02-28T03:17:23.783Z,0
2017-02-28T03:18:34.369Z,0
2017-02-28T03:19:44.652Z,0
2017-02-28T03:20:54.921Z,0
2017-02-28T03:22:05.198Z,0
2017-02-28T03:23:15.445Z,0
2017-02-28T03:24:26.045Z,0
2017-02-28T03:25:36.100Z,0
2017-02-28T03:26:45.957Z,0
2017-02-28T03:27:55.890Z,0
2017-02-28T03:29:06.204Z,0
2017-02-28T03:30:16.374Z,0
2017-02-28T03:31:26.643Z,0
2017-02-28T03:32:37.039Z,0
2017-02-28T03:33:46.934Z,0
2017-02-28T03:34:57.237Z,0
2017-02-28T03:36:07.791Z,0
2017-02-28T03:37:17.695Z,0
2017-02-28T03:38:27.993Z,0
2017-02-28T03:39:37.891Z,0
2017-02-28T03:40:48.185Z,0
2017-02-28T03:41:58.705Z,0
2017-02-28T03:43:08.209Z,0
2017-02-28T03:44:18.154Z,0
2017-02-28T03:45:28.440Z,0
2017-02-28T03:46:38.823Z,0
2017-02-28T03:47:49.367Z,0
2017-02-28T03:48:59.652Z,0
2017-02-28T03:50:09.123Z,0
2017-02-28T03:51:19.019Z,0
2017-02-28T03:52:29.308Z,0
2017-02-28T03:53:38.641Z,0
2017-02-28T03:54:48.561Z,0
2017-02-28T03:55:58.449Z,0
2017-02-28T03:57:08.744Z,0
2017-02-28T03:58:18.664Z,0
2017-02-28T03:59:28.775Z,0
2017-02-28T04:00:39.053Z,0
2017-02-28T04:01:48.964Z,0
2017-02-28T04:02:58.842Z,0
2017-02-28T04:04:09.115Z,0
2017-02-28T04:05:19.306Z,0
2017-02-28T04:06:29.217Z,0
2017-02-28T04:07:39.292Z,0
2017-02-28T04:08:49.551Z,0
2017-02-28T04:09:59.917Z,0
2017-02-28T04:11:10.456Z,0
2017-02-28T04:12:20.729Z,0
2017-02-28T04:13:30.629Z,0
2017-02-28T04:14:40.651Z,0
2017-02-28T04:15:50.912Z,0
2017-02-28T04:17:01.434Z,0
2017-02-28T04:18:11.331Z,0
2017-02-28T04:19:21.672Z,0
2017-02-28T04:20:31.958Z,0
2017-02-28T04:21:41.819Z,0
2017-02-28T04:22:51.612Z,0
2017-02-28T04:24:01.512Z,0
2017-02-28T04:25:11.767Z,0
2017-02-28T04:26:21.708Z,0
2017-02-28T04:27:32.018Z,0
2017-02-28T04:28:42.558Z,0
2017-02-28T04:29:52.029Z,0
2017-02-28T04:31:02.368Z,0
2017-02-28T04:32:12.710Z,0
2017-02-28T04:33:22.991Z,0
2017-02-28T04:34:33.570Z,0
2017-02-28T04:35:43.853Z,0
2017-02-28T04:36:53.750Z,0
2017-02-28T04:38:03.636Z,0
2017-02-28T04:39:13.146Z,0
2017-02-28T04:40:23.339Z,0
2017-02-28T04:41:33.628Z,0
2017-02-28T04:42:43.585Z,0
2017-02-28T04:43:53.463Z,0
2017-02-28T04:45:03.939Z,0
2017-02-28T04:46:13.780Z,0
2017-02-28T04:47:23.695Z,0
2017-02-28T04:48:34.001Z,0
2017-02-28T04:49:44.317Z,0
2017-02-28T04:50:54.292Z,0
2017-02-28T04:52:04.393Z,0
2017-02-28T04:53:14.341Z,0
2017-02-28T04:54:24.795Z,0
2017-02-28T04:55:35.109Z,0
2017-02-28T04:56:45.455Z,0
2017-02-28T04:57:56.031Z,0
2017-02-28T04:59:05.925Z,0
2017-02-28T05:00:16.238Z,0
2017-02-28T05:01:26.511Z,0
2017-02-28T05:02:36.369Z,0
2017-02-28T05:03:46.582Z,0
2017-02-28T05:04:56.923Z,0
2017-02-28T05:06:07.224Z,0
2017-02-28T05:07:17.629Z,0
2017-02-28T05:08:27.538Z,0
2017-02-28T05:09:38.153Z,0
2017-02-28T05:10:48.043Z,0
2017-02-28T05:11:58.308Z,0
2017-02-28T05:13:08.585Z,0
2017-02-28T05:14:19.044Z,0
2017-02-28T05:15:29.188Z,0
2017-02-28T05:16:38.255Z,0
2017-02-28T05:17:48.185Z,0
2017-02-28T05:18:58.469Z,0
2017-02-28T05:20:08.343Z,0
2017-02-28T05:21:18.483Z,0
2017-02-28T05:22:28.399Z,0
2017-02-28T05:23:38.917Z,0
2017-02-28T05:24:49.223Z,0
2017-02-28T05:25:59.109Z,0
2017-02-28T05:27:09.246Z,0
2017-02-28T05:28:19.522Z,0
2017-02-28T05:29:29.588Z,0
2017-02-28T05:30:39.865Z,0
2017-02-28T05:31:50.314Z,0
2017-02-28T05:33:00.887Z,0
2017-02-28T05:34:11.142Z,0
2017-02-28T05:35:21.147Z,0
2017-02-28T05:36:31.447Z,0
2017-02-28T05:37:41.326Z,0
2017-02-28T05:38:51.463Z,4
2017-02-28T05:40:01.773Z,4
2017-02-28T05:41:12.099Z,0
2017-02-28T05:42:21.983Z,4
2017-02-28T05:43:31.472Z,8
2017-02-28T05:44:42.084Z,4
2017-02-28T05:45:52.348Z,8
2017-02-28T05:47:02.622Z,8
2017-02-28T05:48:12.471Z,12
2017-02-28T05:49:22.420Z,12
2017-02-28T05:50:32.533Z,12
2017-02-28T05:51:42.934Z,16
2017-02-28T05:52:53.258Z,24
2017-02-28T05:54:03.611Z,28
2017-02-28T05:55:13.921Z,36
2017-02-28T05:56:24.024Z,40
2017-02-28T05:57:34.327Z,44
2017-02-28T05:58:44.644Z,48
2017-02-28T05:59:54.909Z,52
2017-02-28T06:01:04.796Z,56
2017-02-28T06:02:15.357Z,60
2017-02-28T06:03:25.633Z,68
2017-02-28T06:04:35.959Z,80
2017-02-28T06:05:46.247Z,96
2017-02-28T06:06:56.513Z,104
2017-02-28T06:08:07.098Z,116
2017-02-28T06:09:16.990Z,136
2017-02-28T06:10:26.864Z,156
2017-02-28T06:11:37.206Z,180
2017-02-28T06:12:47.125Z,204
2017-02-28T06:13:57.730Z,224
2017-02-28T06:15:08.014Z,228
2017-02-28T06:16:17.915Z,228
2017-02-28T06:17:27.834Z,244
2017-02-28T06:18:37.711Z,268
2017-02-28T06:19:48.398Z,300
2017-02-28T06:20:58.460Z,348
2017-02-28T06:22:08.368Z,412
2017-02-28T06:23:18.654Z,424
2017-02-28T06:24:29.072Z,400
2017-02-28T06:25:39.602Z,424
2017-02-28T06:26:49.892Z,448
2017-02-28T06:28:00.285Z,440
2017-02-28T06:29:10.587Z,412
2017-02-28T06:30:20.871Z,408
2017-02-28T06:31:31.405Z,416
2017-02-28T06:32:41.677Z,416
2017-02-28T06:33:51.609Z,436
2017-02-28T06:35:01.896Z,468
2017-02-28T06:36:12.183Z,500
2017-02-28T06:37:22.768Z,528
2017-02-28T06:38:33.066Z,560
2017-02-28T06:39:42.563Z,596
2017-02-28T06:40:52.841Z,616
2017-02-28T06:42:03.147Z,636
2017-02-28T06:43:13.727Z,676
2017-02-28T06:44:23.591Z,740
2017-02-28T06:45:33.882Z,808
2017-02-28T06:46:44.190Z,888
2017-02-28T06:47:54.136Z,1000
2017-02-28T06:49:04.409Z,1148
2017-02-28T06:50:14.702Z,1344
2017-02-28T06:51:24.554Z,1352
2017-02-28T06:52:34.506Z,1256
2017-02-28T06:53:44.823Z,1220
2017-02-28T06:54:54.951Z,1116
2017-02-28T06:56:04.878Z,1068
2017-02-28T06:57:15.171Z,1100
2017-02-28T06:58:25.510Z,1176
2017-02-28T06:59:35.128Z,1220
2017-02-28T07:00:45.822Z,1284
2017-02-28T07:01:55.746Z,1360
2017-02-28T07:03:06.004Z,1376
2017-02-28T07:04:16.409Z,1360
2017-02-28T07:05:26.698Z,1412
2017-02-28T07:06:36.834Z,1456
2017-02-28T07:08:18.835Z,1608
2017-02-28T07:09:29.153Z,1656
2017-02-28T07:10:39.443Z,1696
2017-02-28T07:11:49.953Z,1628
2017-02-28T07:13:00.209Z,1676
2017-02-28T07:14:10.473Z,1736
2017-02-28T07:15:20.053Z,1904
2017-02-28T07:16:29.563Z,2064
2017-02-28T07:17:40.231Z,2236
2017-02-28T07:18:50.618Z,2292
2017-02-28T07:20:00.947Z,2368
2017-02-28T07:21:11.221Z,2440
2017-02-28T07:22:21.556Z,2416
2017-02-28T07:23:31.420Z,2344
2017-02-28T07:24:41.689Z,2384
2017-02-28T07:25:51.977Z,2516
2017-02-28T07:27:02.278Z,2504
2017-02-28T07:28:12.550Z,2440
2017-02-28T07:29:23.149Z,2760
2017-02-28T07:30:32.653Z,3052
2017-02-28T07:31:42.509Z,3120
2017-02-28T07:32:52.902Z,3352
2017-02-28T07:34:02.785Z,3900
2017-02-28T07:35:13.137Z,4072
2017-02-28T07:36:23.402Z,4008
2017-02-28T07:37:33.678Z,3848
2017-02-28T07:38:44.030Z,3680
2017-02-28T07:39:54.334Z,3696
2017-02-28T07:41:04.466Z,3828
2017-02-28T07:42:14.786Z,4068
2017-02-28T07:43:24.679Z,4252
2017-02-28T07:44:34.153Z,4720
2017-02-28T07:45:44.072Z,4872
2017-02-28T07:46:55.119Z,5172
2017-02-28T07:48:05.416Z,5128
2017-02-28T07:49:15.776Z,4872
2017-02-28T07:50:26.031Z,4988
2017-02-28T07:51:36.326Z,5384
2017-02-28T07:52:46.933Z,5460
2017-02-28T07:53:56.838Z,5832
2017-02-28T07:55:06.732Z,5352
2017-02-28T07:56:17.034Z,4836
2017-02-28T07:57:27.359Z,4860
2017-02-28T07:58:37.497Z,4896
2017-02-28T07:59:47.886Z,4392
2017-02-28T08:00:58.332Z,4472
2017-02-28T08:02:08.718Z,4576
2017-02-28T08:03:19.008Z,4508
2017-02-28T08:04:29.540Z,4284
2017-02-28T08:05:39.479Z,4000
2017-02-28T08:06:49.369Z,3972
2017-02-28T08:07:59.661Z,4040
2017-02-28T08:09:09.969Z,3676
2017-02-28T08:10:20.476Z,3760
2017-02-28T08:11:30.348Z,4004
2017-02-28T08:12:40.613Z,4172
2017-02-28T08:13:50.504Z,5124
2017-02-28T08:15:00.398Z,5672
2017-02-28T08:16:10.668Z,4232
2017-02-28T08:17:20.703Z,4916
2017-02-28T08:18:30.579Z,14128
2017-02-28T08:19:41.561Z,10828
2017-02-28T08:20:51.996Z,21280
2017-02-28T08:22:03.322Z,27648
2017-02-28T08:23:14.087Z,25344
2017-02-28T08:24:25.035Z,26656
2017-02-28T08:25:36.031Z,10404
2017-02-28T08:26:46.591Z,29504
2017-02-28T08:27:58.372Z,29984
2017-02-28T08:29:09.340Z,21888
2017-02-28T08:30:19.891Z,14468
2017-02-28T08:31:30.498Z,43616
2017-02-28T08:32:41.491Z,35552
2017-02-28T08:33:52.838Z,45312
2017-02-28T08:35:02.904Z,44864
2017-02-28T08:36:13.910Z,47136
2017-02-28T08:37:24.937Z,46368
2017-02-28T08:38:35.934Z,42400
2017-02-28T08:39:46.760Z,44096
2017-02-28T08:40:57.812Z,40768
2017-02-28T08:42:08.768Z,36448
2017-02-28T08:43:19.757Z,39840
2017-02-28T08:44:30.333Z,37184
2017-02-28T08:45:41.347Z,40000
2017-02-28T08:46:51.926Z,43520
2017-02-28T08:48:03.125Z,46880
2017-02-28T08:49:13.749Z,45920
2017-02-28T08:50:24.301Z,49184
2017-02-28T08:51:35.130Z,53216
2017-02-28T08:52:46.110Z,53824
2017-02-28T08:53:56.192Z,49536
2017-02-28T08:55:06.774Z,46304
2017-02-28T08:56:17.875Z,48160
2017-02-28T08:57:27.899Z,46816
2017-02-28T08:58:38.960Z,51904
2017-02-28T08:59:49.518Z,47104
2017-02-28T09:01:00.183Z,59552
2017-02-28T09:02:10.766Z,41632
2017-02-28T09:03:22.093Z,19904
2017-02-28T09:04:33.104Z,20256
2017-02-28T09:05:43.064Z,19968
2017-02-28T09:06:53.379Z,22240
2017-02-28T09:08:03.310Z,18656
2017-02-28T09:09:14.667Z,42720
2017-02-28T09:10:25.220Z,38624
2017-02-28T09:11:35.403Z,42752
2017-02-28T09:12:46.355Z,60608
2017-02-28T09:13:56.916Z,51424
2017-02-28T09:15:08.132Z,58784
2017-02-28T09:16:18.755Z,53824
2017-02-28T09:17:29.343Z,59808
2017-02-28T09:18:40.333Z,61824
2017-02-28T09:19:50.903Z,59424
2017-02-28T09:21:01.745Z,64224
2017-02-28T09:22:12.411Z,62144
2017-02-28T09:23:23.406Z,64256
2017-02-28T09:24:34.289Z,46208
2017-02-28T09:25:45.345Z,64096
2017-02-28T09:26:56.131Z,68960
2017-02-28T09:28:07.169Z,71680
2017-02-28T09:29:17.315Z,65920
2017-02-28T09:30:28.289Z,67872
2017-02-28T09:31:39.345Z,68224
2017-02-28T09:32:50.577Z,65472
2017-02-28T09:34:01.172Z,69056
2017-02-28T09:35:11.290Z,61504
2017-02-28T09:36:22.342Z,61568
2017-02-28T09:37:32.922Z,68864
2017-02-28T09:38:44.299Z,71584
2017-02-28T09:39:54.859Z,70016
2017-02-28T09:41:05.472Z,10752
2017-02-28T09:42:16.048Z,71232
2017-02-28T09:43:27.202Z,54240
2017-02-28T09:44:38.515Z,80320
2017-02-28T09:45:48.388Z,11080
2017-02-28T09:46:58.741Z,10356
2017-02-28T09:48:09.296Z,70912
2017-02-28T09:49:19.910Z,18400
2017-02-28T09:50:30.504Z,62656
2017-02-28T09:51:40.813Z,11144
2017-02-28T09:52:51.775Z,92032
2017-02-28T09:54:02.382Z,81632
2017-02-28T09:55:13.355Z,38816
2017-02-28T09:56:24.545Z,80544
2017-02-28T09:57:35.115Z,63264
2017-02-28T09:58:45.322Z,67904
2017-02-28T09:59:55.626Z,10268
2017-02-28T10:01:06.587Z,36000
2017-02-28T10:02:17.835Z,69888
2017-02-28T10:04:00.559Z,32544
2017-02-28T10:05:10.935Z,70688
2017-02-28T10:06:21.492Z,80736
2017-02-28T10:07:32.740Z,82720
2017-02-28T10:08:43.695Z,77760
2017-02-28T10:09:53.996Z,76480
2017-02-28T10:11:03.464Z,43872
2017-02-28T10:12:14.488Z,67424
2017-02-28T10:13:26.244Z,66528
2017-02-28T10:14:37.254Z,56544
2017-02-28T10:15:48.230Z,72128
2017-02-28T10:16:59.192Z,97120
2017-02-28T10:18:10.007Z,90208
2017-02-28T10:19:21.272Z,87936
2017-02-28T10:20:32.077Z,57440
2017-02-28T10:21:41.979Z,14728
2017-02-28T10:22:52.420Z,49152
2017-02-28T10:24:03.474Z,83072
2017-02-28T10:25:14.860Z,86240
2017-02-28T10:26:25.422Z,54528
2017-02-28T10:27:36.407Z,77920
2017-02-28T10:28:46.507Z,102304
2017-02-28T10:29:57.496Z,102144
2017-02-28T10:31:08.031Z,40064
2017-02-28T10:32:18.114Z,93632
2017-02-28T10:33:28.622Z,63200
2017-02-28T10:34:39.654Z,79328
2017-02-28T10:35:49.446Z,92992
2017-02-28T10:36:59.830Z,82464
2017-02-28T10:38:10.383Z,74112
2017-02-28T10:39:21.385Z,80000
2017-02-28T10:40:31.555Z,88768
2017-02-28T10:41:42.561Z,77280
2017-02-28T10:42:53.466Z,77536
2017-02-28T10:44:03.780Z,71968
2017-02-28T10:45:14.003Z,88032
2017-02-28T10:46:25.179Z,98816
2017-02-28T10:47:34.985Z,91328
2017-02-28T10:48:46.192Z,96832
2017-02-28T10:49:56.507Z,31456
2017-02-28T10:51:07.559Z,82560
2017-02-28T10:52:18.558Z,80928
2017-02-28T10:53:28.725Z,84192
2017-02-28T10:54:40.065Z,91264
2017-02-28T10:55:50.166Z,93248
2017-02-28T10:57:00.807Z,96544
2017-02-28T10:58:11.813Z,87360
2017-02-28T10:59:22.390Z,80640
2017-02-28T11:00:33.761Z,94688
2017-02-28T11:01:44.749Z,81856
2017-02-28T11:02:55.327Z,71744
2017-02-28T11:04:06.296Z,109376
2017-02-28T11:05:16.912Z,109952
2017-02-28T11:06:27.800Z,79776
2017-02-28T11:07:38.293Z,80416
2017-02-28T11:08:48.774Z,86560
2017-02-28T11:09:59.986Z,64576
2017-02-28T11:11:10.953Z,83360
2017-02-28T11:12:21.776Z,112288
2017-02-28T11:13:32.824Z,79040
2017-02-28T11:14:42.910Z,90240
2017-02-28T11:15:53.150Z,103232
2017-02-28T11:17:04.164Z,79712
2017-02-28T11:18:14.910Z,81472
2017-02-28T11:19:25.946Z,62240
2017-02-28T11:20:36.247Z,27168
2017-02-28T11:21:46.183Z,45088
2017-02-28T11:22:56.070Z,74400
2017-02-28T11:24:07.370Z,71872
2017-02-28T11:25:17.284Z,12712
2017-02-28T11:26:27.636Z,15132
2017-02-28T11:27:38.011Z,14324
2017-02-28T11:28:49.011Z,90720
2017-02-28T11:29:59.559Z,76576
2017-02-28T11:31:09.869Z,75360
2017-02-28T11:32:20.201Z,69568
2017-02-28T11:33:30.498Z,68064
2017-02-28T11:34:40.802Z,88480
2017-02-28T11:35:52.036Z,84480
2017-02-28T11:37:02.666Z,81184
2017-02-28T11:38:13.687Z,89600
2017-02-28T11:39:24.285Z,72992
2017-02-28T11:40:34.915Z,86048
2017-02-28T11:41:45.743Z,103360
2017-02-28T11:42:56.755Z,92160
2017-02-28T11:44:07.748Z,93120
2017-02-28T11:45:18.738Z,82912
2017-02-28T11:46:29.779Z,94208
2017-02-28T11:47:40.707Z,113408
2017-02-28T11:48:51.316Z,96512
2017-02-28T11:50:02.299Z,83360
2017-02-28T11:51:12.958Z,92896
2017-02-28T11:52:23.501Z,104096
2017-02-28T11:53:34.865Z,76928
2017-02-28T11:54:46.083Z,66432
2017-02-28T11:55:56.437Z,101888
2017-02-28T11:57:06.373Z,80768
2017-02-28T11:58:16.668Z,11088
2017-02-28T11:59:26.829Z,11624
2017-02-28T12:00:36.709Z,115008
2017-02-28T12:01:46.634Z,22304
2017-02-28T12:02:57.014Z,32576
2017-02-28T12:04:07.364Z,71680
2017-02-28T12:05:17.518Z,85952
2017-02-28T12:06:27.471Z,92928
2017-02-28T12:07:37.489Z,99744
2017-02-28T12:08:47.389Z,113728
2017-02-28T12:09:57.775Z,26752
2017-02-28T12:11:08.365Z,26272
2017-02-28T12:12:18.657Z,19040
2017-02-28T12:13:28.950Z,95008
2017-02-28T12:14:39.291Z,91072
2017-02-28T12:15:49.703Z,37280
2017-02-28T12:16:59.894Z,117472
2017-02-28T12:18:09.826Z,122848
2017-02-28T12:19:20.175Z,93792
2017-02-28T12:20:30.475Z,96608
2017-02-28T12:21:40.826Z,93856
2017-02-28T12:22:51.374Z,77536
2017-02-28T12:24:01.685Z,82432
2017-02-28T12:25:12.012Z,13556
2017-02-28T12:26:22.382Z,96000
2017-02-28T12:27:32.301Z,87456
2017-02-28T12:28:42.554Z,81216
2017-02-28T12:29:52.854Z,73568
2017-02-28T12:31:03.165Z,71712
2017-02-28T12:32:13.088Z,91520
2017-02-28T12:33:23.400Z,91264
2017-02-28T12:34:33.983Z,15000
2017-02-28T12:35:43.887Z,88896
2017-02-28T12:36:53.816Z,96384
2017-02-28T12:38:04.499Z,81632
2017-02-28T12:39:14.446Z,69088
2017-02-28T12:40:25.114Z,72000
2017-02-28T12:41:35.035Z,9168
2017-02-28T12:42:45.375Z,14888
2017-02-28T12:43:55.303Z,73728
2017-02-28T12:45:04.781Z,96384
2017-02-28T12:46:14.157Z,45312
2017-02-28T12:47:24.478Z,62592
2017-02-28T12:48:34.415Z,67840
2017-02-28T12:49:44.735Z,91872
2017-02-28T12:50:55.067Z,82624
2017-02-28T12:52:05.694Z,75168
2017-02-28T12:53:15.625Z,102208
2017-02-28T12:54:25.571Z,104800
2017-02-28T12:55:35.916Z,72096
2017-02-28T12:56:45.899Z,70368
2017-02-28T12:57:56.534Z,85728
2017-02-28T12:59:06.564Z,95296
2017-02-28T13:00:16.898Z,71616
2017-02-28T13:01:27.286Z,75488
2017-02-28T13:02:37.193Z,82080
2017-02-28T13:03:47.340Z,62272
2017-02-28T13:04:57.299Z,65632
2017-02-28T13:06:07.210Z,70816
2017-02-28T13:07:16.802Z,71968
2017-02-28T13:08:27.094Z,84928
2017-02-28T13:09:37.284Z,73728
2017-02-28T13:10:47.293Z,74560
2017-02-28T13:11:57.627Z,70752
2017-02-28T13:13:07.222Z,66560
2017-02-28T13:14:17.540Z,72512
2017-02-28T13:15:28.195Z,64928
2017-02-28T13:16:38.538Z,48256
2017-02-28T13:17:48.878Z,46912
2017-02-28T13:18:59.291Z,54688
2017-02-28T13:20:09.631Z,66560
2017-02-28T13:21:19.825Z,78816
2017-02-28T13:22:29.729Z,65600
2017-02-28T13:23:40.124Z,64544
2017-02-28T13:24:50.016Z,76096
2017-02-28T13:26:00.031Z,74784
2017-02-28T13:27:10.616Z,67648
2017-02-28T13:28:20.518Z,64480
2017-02-28T13:29:30.878Z,75776
2017-02-28T13:30:40.782Z,77536
2017-02-28T13:31:51.155Z,64928
2017-02-28T13:33:01.462Z,75296
2017-02-28T13:34:11.763Z,85152
2017-02-28T13:35:20.850Z,77568
2017-02-28T13:36:31.168Z,72800
2017-02-28T13:37:41.085Z,73088
2017-02-28T13:38:51.693Z,77856
2017-02-28T13:40:02.096Z,70528
2017-02-28T13:41:12.399Z,76672
2017-02-28T13:42:22.369Z,75456
2017-02-28T13:43:32.882Z,64192
2017-02-28T13:44:43.579Z,62272
2017-02-28T13:45:53.880Z,13308
2017-02-28T13:47:04.228Z,60864
2017-02-28T13:48:14.596Z,53984
2017-02-28T13:49:24.930Z,61280
2017-02-28T13:50:35.494Z,20928
2017-02-28T13:51:45.807Z,24672
2017-02-28T13:52:55.746Z,16320
2017-02-28T13:54:05.240Z,68128
2017-02-28T13:55:15.564Z,53632
2017-02-28T13:56:26.129Z,34592
2017-02-28T13:57:36.465Z,43392
2017-02-28T13:58:45.984Z,41664
2017-02-28T13:59:56.420Z,13768
2017-02-28T14:01:06.725Z,15312
2017-02-28T14:02:17.284Z,15084
2017-02-28T14:03:27.178Z,39936
2017-02-28T14:04:37.502Z,34560
2017-02-28T14:05:47.794Z,24288
2017-02-28T14:06:58.131Z,34432
2017-02-28T14:08:08.575Z,27456
2017-02-28T14:09:18.491Z,31776
2017-02-28T14:10:27.962Z,42784
2017-02-28T14:11:37.846Z,46848
2017-02-28T14:12:48.199Z,39552
2017-02-28T14:13:58.782Z,33920
2017-02-28T14:15:08.676Z,21088
2017-02-28T14:16:19.022Z,23584
2017-02-28T14:17:29.326Z,35552
2017-02-28T14:18:38.820Z,37568
2017-02-28T14:19:49.473Z,34304
2017-02-28T14:20:59.505Z,30976
2017-02-28T14:22:09.852Z,26336
2017-02-28T14:23:20.203Z,23776
2017-02-28T14:24:30.590Z,21376
2017-02-28T14:25:41.140Z,19552
2017-02-28T14:26:51.487Z,18208
2017-02-28T14:28:01.790Z,17792
2017-02-28T14:29:12.141Z,20352
2017-02-28T14:30:22.037Z,20384
2017-02-28T14:31:32.598Z,16480
2017-02-28T14:32:42.658Z,14356
2017-02-28T14:33:53.065Z,18816
2017-02-28T14:35:03.494Z,18208
2017-02-28T14:36:13.454Z,15456
2017-02-28T14:37:23.696Z,13188
2017-02-28T14:38:34.072Z,12464
2017-02-28T14:39:44.004Z,11160
2017-02-28T14:40:54.364Z,10752
2017-02-28T14:42:04.668Z,10960
2017-02-28T14:43:15.286Z,10676
2017-02-28T14:44:24.910Z,10212
2017-02-28T14:45:34.834Z,9768
2017-02-28T14:46:45.167Z,9080
2017-02-28T14:47:55.510Z,8536
2017-02-28T14:49:06.239Z,8156
2017-02-28T14:50:16.685Z,7580
2017-02-28T14:51:27.081Z,7352
2017-02-28T14:52:37.514Z,6912
2017-02-28T14:53:47.849Z,6600
2017-02-28T14:54:58.399Z,6416
2017-02-28T14:56:08.774Z,6192
2017-02-28T14:57:19.204Z,5892
2017-02-28T14:58:29.637Z,5600
2017-02-28T14:59:40.012Z,5200
2017-02-28T15:00:50.592Z,4596
2017-02-28T15:02:00.593Z,4088
2017-02-28T15:03:10.506Z,3980
2017-02-28T15:04:20.901Z,4012
2017-02-28T15:05:30.095Z,4020
2017-02-28T15:06:40.713Z,4116
2017-02-28T15:07:50.626Z,4276
2017-02-28T15:09:00.968Z,4220
2017-02-28T15:10:11.290Z,4104
2017-02-28T15:11:21.650Z,4056
2017-02-28T15:12:32.239Z,3916
2017-02-28T15:13:42.559Z,3644
2017-02-28T15:14:52.052Z,3460
2017-02-28T15:16:02.422Z,3500
2017-02-28T15:17:12.768Z,3612
2017-02-28T15:18:23.334Z,3508
2017-02-28T15:19:33.701Z,3368
2017-02-28T15:20:43.662Z,3244
2017-02-28T15:21:53.201Z,3140
2017-02-28T15:23:03.087Z,2968
2017-02-28T15:24:13.741Z,2808
2017-02-28T15:25:24.069Z,2680
2017-02-28T15:26:34.098Z,2644
2017-02-28T15:27:44.424Z,2668
2017-02-28T15:28:54.420Z,2696
2017-02-28T15:30:05.107Z,2628
2017-02-28T15:31:15.015Z,2536
2017-02-28T15:32:25.424Z,2492
2017-02-28T15:33:35.378Z,2508
2017-02-28T15:34:45.331Z,2508
2017-02-28T15:35:56.043Z,2460
2017-02-28T15:37:06.024Z,2336
2017-02-28T15:38:15.943Z,2172
2017-02-28T15:39:26.282Z,1988
2017-02-28T15:40:36.612Z,1796
2017-02-28T15:41:47.307Z,1588
2017-02-28T15:42:57.669Z,1404
2017-02-28T15:44:08.087Z,1320
2017-02-28T15:45:18.106Z,1252
2017-02-28T15:46:28.469Z,1388
2017-02-28T15:47:39.097Z,1452
2017-02-28T15:48:49.453Z,1400
2017-02-28T15:49:59.847Z,1272
2017-02-28T15:51:10.160Z,1128
2017-02-28T15:52:20.484Z,1096
2017-02-28T15:53:31.039Z,1052
2017-02-28T15:54:41.371Z,1100
2017-02-28T15:55:51.807Z,1076
2017-02-28T15:57:02.160Z,1032
2017-02-28T15:58:12.060Z,1012
2017-02-28T15:59:22.716Z,996
2017-02-28T16:00:32.612Z,976
2017-02-28T16:01:43.083Z,940